Time;durP1;ratioP1;P1;durP2;ratioP2;P2;SDS_P1;SDS_P2;PMS_P1;PMS_P2;Temp;Humidity;BMP_temperature;BMP_pressure;BME280_temperature;BME280_humidity;BME280_pressure;Samples;Min_cycle;Max_cycle;Signal;HPM_P1;HPM_P2
2022/04/26 03:36:55;;;;;;;11.77;5.43;;;;;;;14.79;55.34;97777.00;4456679;32;20166;-79
2022/04/26 03:39:22;;;;;;;13.00;5.57;;;;;;;14.08;57.83;97777.09;4456483;32;20144;-79
2022/04/26 03:41:49;;;;;;;13.50;5.43;;;;;;;14.53;56.19;97783.00;4456747;32;20413;-79
2022/04/26 03:44:16;;;;;;;12.25;5.45;;;;;;;14.45;56.26;97786.88;4456757;32;20144;-79
2022/04/26 03:46:43;;;;;;;11.68;5.30;;;;;;;14.57;55.62;97781.84;4456307;32;20161;-79
2022/04/26 03:49:10;;;;;;;12.27;5.30;;;;;;;14.29;56.47;97793.94;4442824;32;20149;-79
2022/04/26 03:51:37;;;;;;;11.75;5.53;;;;;;;13.65;58.73;97794.41;4456265;32;20103;-79
2022/04/26 03:54:03;;;;;;;13.15;5.35;;;;;;;13.20;59.94;97785.81;4455997;32;20089;-79
2022/04/26 03:56:33;;;;;;;11.95;5.50;;;;;;;13.87;58.08;97790.44;4456589;32;20504;-79
2022/04/26 03:59:00;;;;;;;11.10;4.82;;;;;;;13.58;58.62;97794.75;4456367;32;20145;-79
2022/04/26 04:01:27;;;;;;;11.23;5.07;;;;;;;13.97;57.89;97801.09;4456602;32;20497;-79
2022/04/26 04:03:54;;;;;;;12.13;5.62;;;;;;;14.34;56.22;97804.03;4456567;32;20088;-79
2022/04/26 04:06:21;;;;;;;11.55;5.03;;;;;;;13.68;57.95;97796.81;4456186;32;20089;-79
2022/04/26 04:08:48;;;;;;;11.60;5.15;;;;;;;14.66;53.99;97808.09;4456537;32;20140;-79
2022/04/26 04:11:15;;;;;;;10.85;5.10;;;;;;;14.33;54.67;97804.97;4456504;32;20469;-79
2022/04/26 04:13:41;;;;;;;11.15;5.00;;;;;;;13.96;55.56;97812.41;4456146;32;20506;-79
2022/04/26 04:16:08;;;;;;;12.98;5.28;;;;;;;13.79;55.76;97805.63;4456279;32;20176;-79
2022/04/26 04:21:21;;;;;;;10.52;4.62;;;;;;;13.81;56.30;97815.91;4456191;32;20085;-79
2022/04/26 04:23:48;;;;;;;12.82;4.95;;;;;;;14.05;55.92;97811.03;4456422;32;20072;-79
2022/04/26 04:26:15;;;;;;;11.40;4.78;;;;;;;14.43;54.82;97826.81;4456371;32;20391;-79
2022/04/26 04:28:42;;;;;;;12.23;4.70;;;;;;;14.90;52.44;97831.69;4442143;32;20137;-79
2022/04/26 04:31:12;;;;;;;10.82;4.53;;;;;;;14.72;53.56;97831.09;4444493;32;20146;-79
2022/04/26 04:33:40;;;;;;;10.25;4.68;;;;;;;14.85;53.07;97831.13;4455039;32;20149;-79
2022/04/26 04:36:07;;;;;;;9.75;4.55;;;;;;;14.93;53.17;97833.25;4455116;32;20125;-79
2022/04/26 04:38:33;;;;;;;11.18;4.80;;;;;;;15.41;51.47;97837.03;4455334;32;20122;-79
2022/04/26 04:41:01;;;;;;;12.48;5.53;;;;;;;13.73;58.03;97849.25;4455953;32;20181;-79
2022/04/26 04:43:28;;;;;;;13.02;6.22;;;;;;;14.74;55.37;97855.19;4456380;32;20443;-78
2022/04/26 04:45:54;;;;;;;11.65;5.55;;;;;;;14.67;56.32;97853.06;4456099;32;20154;-79
2022/04/26 04:48:22;;;;;;;12.88;6.53;;;;;;;15.37;54.30;97865.94;4456006;32;20116;-79
2022/04/26 04:50:49;;;;;;;11.55;4.82;;;;;;;16.48;51.50;97869.72;4455097;32;20156;-79
2022/04/26 04:53:20;;;;;;;10.35;4.35;;;;;;;16.73;49.63;97879.28;4456380;32;20123;-79
2022/04/26 04:55:47;;;;;;;11.60;4.53;;;;;;;17.24;48.90;97880.88;4455799;32;20145;-79
2022/04/26 04:58:14;;;;;;;9.55;4.57;;;;;;;16.79;49.97;97880.59;4456266;32;20525;-79
2022/04/26 05:00:41;;;;;;;10.23;4.50;;;;;;;17.52;48.64;97880.53;4456213;32;20521;-79
2022/04/26 05:03:08;;;;;;;10.93;4.47;;;;;;;17.56;49.13;97881.97;4455978;32;20150;-79
2022/04/26 05:05:35;;;;;;;9.15;4.10;;;;;;;18.37;46.63;97881.09;4456043;32;20112;-79
2022/04/26 05:08:03;;;;;;;12.30;4.70;;;;;;;18.58;47.27;97881.22;4454940;32;20168;-79
2022/04/26 05:10:33;;;;;;;9.63;4.50;;;;;;;19.97;44.47;97882.28;4455731;32;20089;-80
2022/04/26 05:13:00;;;;;;;10.20;4.80;;;;;;;20.21;43.86;97883.69;4456240;32;20101;-80
2022/04/26 05:15:27;;;;;;;10.98;5.20;;;;;;;20.80;42.56;97885.59;4455982;32;20519;-79
2022/04/26 05:17:54;;;;;;;9.90;4.93;;;;;;;20.40;43.64;97892.59;4455864;32;20089;-79
2022/04/26 05:20:21;;;;;;;10.48;5.10;;;;;;;20.53;42.98;97895.88;4456061;32;20099;-79
2022/04/26 05:25:40;;;;;;;10.13;4.80;;;;;;;20.21;44.54;97890.72;4456054;32;20452;-79
2022/04/26 05:28:07;;;;;;;12.70;5.50;;;;;;;20.79;43.48;97899.69;4455876;32;20109;-79
2022/04/26 05:30:34;;;;;;;11.15;5.40;;;;;;;20.50;44.13;97898.72;4449840;32;178025;-80
2022/04/26 05:33:01;;;;;;;10.07;5.07;;;;;;;20.46;44.21;97898.16;4442140;32;20141;-80
2022/04/26 05:35:28;;;;;;;12.13;5.25;;;;;;;20.37;44.27;97891.06;4441847;32;20154;-80
2022/04/26 05:37:55;;;;;;;11.43;5.50;;;;;;;20.14;45.70;97897.41;4455549;32;20160;-80
2022/04/26 05:40:21;;;;;;;11.35;5.32;;;;;;;19.72;47.05;97883.50;4455832;32;20154;-80
2022/04/26 05:42:48;;;;;;;10.65;5.18;;;;;;;20.45;46.09;97890.44;4455883;32;20076;-80
2022/04/26 05:45:15;;;;;;;11.25;5.72;;;;;;;21.14;43.62;97894.94;4455395;32;20102;-80
2022/04/26 05:47:43;;;;;;;10.82;5.50;;;;;;;21.25;43.69;97905.31;4455671;32;20104;-80
2022/04/26 05:50:10;;;;;;;11.02;5.85;;;;;;;21.40;44.22;97911.03;4455635;32;20158;-79
2022/04/26 05:52:37;;;;;;;11.73;5.93;;;;;;;21.55;43.30;97905.25;4455505;32;20085;-80
2022/04/26 05:55:07;;;;;;;10.90;5.57;;;;;;;21.65;43.71;97906.06;4441728;32;20161;-79
2022/04/26 05:57:38;;;;;;;11.18;5.10;;;;;;;21.66;43.06;97906.91;4441969;32;20124;-79
2022/04/26 06:00:07;;;;;;;9.55;5.03;;;;;;;22.03;43.29;97904.41;4455139;32;20111;-79
2022/04/26 06:02:34;;;;;;;11.35;5.25;;;;;;;22.11;43.54;97903.69;4428940;32;20144;-76
2022/04/26 06:05:02;;;;;;;10.38;5.32;;;;;;;22.47;42.45;97902.94;4455158;32;20169;-77
2022/04/26 06:07:29;;;;;;;11.15;4.75;;;;;;;22.92;40.98;97912.75;4455393;32;20164;-77
2022/04/26 06:09:56;;;;;;;9.75;5.07;;;;;;;22.95;39.83;97915.06;4455353;32;20085;-78
2022/04/26 06:12:26;;;;;;;10.60;5.35;;;;;;;22.87;40.54;97912.37;4441288;32;20073;-78
2022/04/26 06:14:54;;;;;;;9.80;4.85;;;;;;;23.07;39.79;97911.28;4455260;32;20120;-77
2022/04/26 06:17:23;;;;;;;9.57;4.50;;;;;;;23.35;38.56;97911.25;4455541;32;20089;-76
2022/04/26 06:19:50;;;;;;;9.50;4.30;;;;;;;23.33;39.33;97911.38;4442959;32;20172;-77
2022/04/26 06:22:17;;;;;;;7.85;3.47;;;;;;;23.86;36.10;97915.03;4457270;32;20454;-77
2022/04/26 06:24:44;;;;;;;6.93;3.30;;;;;;;22.03;36.98;97912.28;4457129;32;20109;-78
2022/04/26 06:27:11;;;;;;;7.07;3.42;;;;;;;22.29;36.94;97915.16;4456988;32;20160;-77
2022/04/26 06:29:38;;;;;;;7.22;3.55;;;;;;;23.15;36.09;97912.34;4457170;32;20132;-77
2022/04/26 06:32:05;;;;;;;6.87;3.33;;;;;;;23.52;35.95;97915.69;4457009;32;20084;-77
2022/04/26 06:34:32;;;;;;;8.00;3.70;;;;;;;24.62;33.34;97912.63;4456739;32;20097;-77
2022/04/26 06:36:59;;;;;;;8.15;3.90;;;;;;;22.02;38.11;97915.88;4457214;32;20164;-76
2022/04/26 06:39:26;;;;;;;7.85;3.70;;;;;;;23.54;36.78;97919.00;4457198;32;20081;-77
2022/04/26 06:41:53;;;;;;;8.20;3.72;;;;;;;23.76;34.87;97912.50;4442872;32;20148;-78
2022/04/26 06:44:20;;;;;;;9.15;4.15;;;;;;;23.42;35.17;97911.47;4443158;32;20125;-81
2022/04/26 06:46:47;;;;;;;8.93;4.07;;;;;;;22.10;37.17;97910.75;4457256;32;20111;-80
2022/04/26 06:49:14;;;;;;;9.05;4.40;;;;;;;22.81;35.34;97916.34;4456708;32;20082;-81
2022/04/26 06:51:43;;;;;;;7.43;3.55;;;;;;;22.01;36.95;97918.63;4443633;32;20081;-81
2022/04/26 06:54:11;;;;;;;7.78;3.60;;;;;;;22.48;35.15;97909.84;4457489;32;20109;-81
2022/04/26 06:56:40;;;;;;;8.68;3.80;;;;;;;22.81;35.26;97910.28;4443906;32;20172;-81
2022/04/26 06:59:07;;;;;;;7.75;3.47;;;;;;;20.74;37.81;97917.63;4458709;32;20165;-82
2022/04/26 07:01:34;;;;;;;7.70;3.58;;;;;;;21.59;36.66;97916.31;4458800;32;20073;-81
2022/04/26 07:04:07;;;;;;;7.55;3.28;;;;;;;22.23;36.26;97918.38;4459254;32;20111;-82
2022/04/26 07:06:34;;;;;;;9.60;4.00;;;;;;;21.00;38.20;97920.59;4459443;32;20107;-82
2022/04/26 07:09:03;;;;;;;7.60;3.83;;;;;;;22.27;35.64;97921.53;4458120;32;20163;-81
2022/04/26 07:11:30;;;;;;;7.25;3.60;;;;;;;22.73;35.57;97926.75;4459127;32;20081;-82
2022/04/26 07:13:57;;;;;;;8.90;3.60;;;;;;;23.49;34.15;97925.69;4460098;32;20069;-81
2022/04/26 07:16:24;;;;;;;8.10;3.60;;;;;;;23.06;33.72;97929.81;4457640;32;20723;-81
2022/04/26 07:18:51;;;;;;;6.70;3.10;;;;;;;22.20;35.06;97921.25;4459027;32;20081;-82
2022/04/26 07:21:18;;;;;;;8.02;4.00;;;;;;;23.72;34.10;97942.75;4460397;32;20144;-82
2022/04/26 07:23:46;;;;;;;7.45;3.47;;;;;;;24.11;32.93;97929.22;4458643;32;20128;-82
2022/04/26 07:26:13;;;;;;;7.43;3.65;;;;;;;24.72;31.90;97938.88;4459380;32;20160;-82
2022/04/26 07:28:40;;;;;;;7.25;3.30;;;;;;;24.57;31.57;97945.75;4456307;32;20461;-83
2022/04/26 07:31:08;;;;;;;7.80;3.58;;;;;;;25.36;30.67;97937.50;4456022;32;20182;-83
2022/04/26 07:36:22;;;;;;;7.75;3.53;;;;;;;21.83;37.34;97939.53;4456517;32;20109;-82
2022/04/26 07:38:50;;;;;;;7.93;3.70;;;;;;;22.49;35.38;97931.69;4456764;32;20124;-81
2022/04/26 07:41:17;;;;;;;7.97;3.90;;;;;;;23.29;33.31;97932.91;4456977;32;20473;-83
2022/04/26 07:43:45;;;;;;;6.75;3.10;;;;;;;22.85;33.28;97932.69;4456415;32;20105;-83
2022/04/26 07:46:16;;;;;;;7.60;3.25;;;;;;;22.01;36.33;97939.62;4442648;32;20105;-82
2022/04/26 07:48:43;;;;;;;8.77;3.78;;;;;;;20.78;37.92;97936.53;4456708;32;20161;-82
2022/04/26 07:51:11;;;;;;;8.52;3.75;;;;;;;22.75;35.04;97942.41;4442430;32;20089;-83
2022/04/26 07:53:39;;;;;;;6.80;2.92;;;;;;;19.77;40.83;97937.13;4456715;32;20159;-83
2022/04/26 07:56:06;;;;;;;8.52;3.40;;;;;;;22.00;36.89;97938.81;4456534;32;20096;-82
2022/04/26 07:58:33;;;;;;;7.35;3.50;;;;;;;20.60;39.84;97933.69;4456299;32;20099;-82
2022/04/26 08:01:01;;;;;;;8.07;3.42;;;;;;;22.63;35.29;97941.75;4457562;32;20136;-82
2022/04/26 08:03:28;;;;;;;7.70;3.53;;;;;;;21.90;36.93;97941.47;4456566;32;20081;-81
2022/04/26 08:05:55;;;;;;;6.75;3.22;;;;;;;23.28;34.37;97942.59;4456222;32;20513;-82
2022/04/26 08:08:23;;;;;;;7.10;3.28;;;;;;;23.57;32.79;97947.66;4456246;32;20134;-82
2022/04/26 08:10:56;;;;;;;6.70;3.12;;;;;;;24.61;30.42;97952.34;4456645;32;20081;-83
2022/04/26 08:13:23;;;;;;;7.47;3.37;;;;;;;22.87;34.88;97953.63;4442411;32;20200;-82
2022/04/26 08:15:50;;;;;;;7.55;3.37;;;;;;;23.42;34.17;97959.69;4456390;32;20160;-83
2022/04/26 08:18:17;;;;;;;6.65;3.25;;;;;;;24.28;32.71;97959.19;4456184;32;20156;-83
2022/04/26 08:20:47;;;;;;;9.88;3.55;;;;;;;22.72;36.77;97961.94;4456715;32;20133;-81
2022/04/26 08:23:14;;;;;;;8.27;3.85;;;;;;;22.90;35.42;97955.97;4443106;32;20113;-80
2022/04/26 08:28:28;;;;;;;8.27;3.67;;;;;;;21.23;38.89;97964.97;4456324;32;20152;-82
2022/04/26 08:30:56;;;;;;;8.90;4.00;;;;;;;21.34;37.24;97959.63;4456115;32;20144;-82
2022/04/26 08:33:23;;;;;;;8.18;3.83;;;;;;;23.50;34.07;97961.56;4456249;32;20113;-81
2022/04/26 08:35:50;;;;;;;8.15;3.55;;;;;;;22.88;36.03;97952.66;4456308;32;20105;-82
2022/04/26 08:38:32;;;;;;;7.75;3.45;;;;;;;23.14;35.27;97963.31;4456465;32;20111;-80
2022/04/26 08:40:59;;;;;;;7.72;3.40;;;;;;;23.71;33.61;97959.50;4455656;32;20070;-82
2022/04/26 08:43:33;;;;;;;5.97;2.70;;;;;;;24.07;33.69;97955.06;4456331;32;20153;-81
2022/04/26 08:46:02;;;;;;;6.62;2.58;;;;;;;22.67;34.95;97964.19;4456266;32;20156;-79
2022/04/26 08:51:15;;;;;;;8.35;3.15;;;;;;;19.43;41.89;97964.31;4456323;32;20164;-82
2022/04/26 08:53:44;;;;;;;8.73;3.37;;;;;;;20.34;40.07;97969.09;4455867;32;20705;-81
2022/04/26 08:56:11;;;;;;;8.10;3.72;;;;;;;21.05;38.06;97962.16;4456087;32;20097;-82
2022/04/26 08:58:39;;;;;;;7.37;3.72;;;;;;;22.26;36.77;97962.75;4456365;32;20116;-81
2022/04/26 09:01:18;;;;;;;7.35;3.37;;;;;;;21.85;36.03;97964.69;4455819;32;20080;-82
2022/04/26 09:03:54;;;;;;;8.40;3.10;;;;;;;22.75;34.68;97964.25;4456248;32;20100;-82
2022/04/26 09:06:45;;;;;;;7.15;3.30;;;;;;;24.44;31.30;97960.13;4456236;32;20089;-82
2022/04/26 09:09:18;;;;;;;7.75;3.15;;;;;;;24.14;32.83;97957.94;4455843;32;20082;-82
2022/04/26 09:11:46;;;;;;;8.98;3.60;;;;;;;22.47;35.83;97959.94;4456153;32;20146;-82
2022/04/26 09:14:33;;;;;;;8.95;3.58;;;;;;;22.57;35.14;97958.13;4456074;32;20140;-82
2022/04/26 09:17:11;;;;;;;6.93;3.20;;;;;;;22.15;35.57;97952.41;4456183;32;20415;-82
2022/04/26 09:19:46;;;;;;;7.10;3.37;;;;;;;23.90;32.60;97955.91;4456052;32;20179;-81
2022/04/26 09:22:26;;;;;;;7.82;2.92;;;;;;;23.07;34.06;97950.75;4455845;32;20099;-82
2022/04/26 09:25:03;;;;;;;8.20;3.37;;;;;;;24.95;31.06;97961.09;4455732;32;20086;-83
2022/04/26 09:27:34;;;;;;;5.45;2.60;;;;;;;24.12;34.37;97962.50;4456161;32;20160;-81
2022/04/26 09:30:10;;;;;;;6.70;3.10;;;;;;;22.27;36.54;97958.31;4441573;32;20084;-83
2022/04/26 09:32:44;;;;;;;8.15;3.80;;;;;;;22.29;37.23;97957.19;4454943;32;20141;-82
2022/04/26 09:35:22;;;;;;;7.90;3.37;;;;;;;21.25;39.03;97952.53;4455444;32;20158;-82
2022/04/26 09:37:50;;;;;;;7.93;3.65;;;;;;;23.56;35.31;97955.72;4458093;32;20186;-83
2022/04/26 09:40:27;;;;;;;13.35;3.90;;;;;;;23.02;36.57;97957.41;4458671;32;20099;-83
2022/04/26 09:42:54;;;;;;;8.43;3.83;;;;;;;23.22;36.32;97958.97;4456823;32;20085;-83
2022/04/26 09:45:21;;;;;;;8.38;3.70;;;;;;;21.97;37.57;97960.09;4441644;32;20094;-82
2022/04/26 09:47:50;;;;;;;7.80;3.45;;;;;;;22.69;36.75;97962.22;4456009;32;20136;-83
2022/04/26 09:50:17;;;;;;;28.77;4.87;;;;;;;22.55;37.43;97959.25;4455350;32;20412;-82
2022/04/26 09:52:44;;;;;;;8.02;3.60;;;;;;;23.22;37.23;97956.34;4454719;32;20085;-82
2022/04/26 09:55:13;;;;;;;7.05;3.28;;;;;;;23.20;35.29;97955.69;4455541;32;20165;-81
2022/04/26 09:57:42;;;;;;;6.65;3.40;;;;;;;24.05;35.00;97951.78;4455420;32;20466;-83
2022/04/26 10:00:11;;;;;;;7.35;3.20;;;;;;;23.28;37.20;97957.56;4455507;32;20103;-81
2022/04/26 10:02:45;;;;;;;6.85;3.40;;;;;;;22.75;38.15;97959.00;4455366;32;20145;-81
2022/04/26 10:05:15;;;;;;;10.07;2.92;;;;;;;22.81;36.10;97955.81;4441025;32;20438;-81
2022/04/26 10:07:48;;;;;;;28.75;4.32;;;;;;;23.53;35.35;97951.59;4441440;32;20128;-83
2022/04/26 10:10:19;;;;;;;7.70;3.55;;;;;;;23.94;34.14;97954.62;4441680;32;20107;-77
2022/04/26 10:13:31;;;;;;;8.07;3.47;;;;;;;22.32;36.23;97946.41;4455146;32;20145;-81
2022/04/26 10:15:37;;;;;;;9.52;3.50;;;;;;;22.75;36.02;97945.84;4444191;32;20178;-82
2022/04/26 10:18:30;;;;;;;8.55;3.62;;;;;;;24.10;33.31;97946.03;4455454;32;20093;-81
2022/04/26 10:20:58;;;;;;;7.57;3.30;;;;;;;22.59;36.92;97943.03;4455356;32;20089;-81
2022/04/26 10:23:25;;;;;;;8.10;3.72;;;;;;;21.25;38.62;97939.41;4455137;32;20157;-82
2022/04/26 10:26:11;;;;;;;8.20;3.40;;;;;;;22.45;35.99;97939.06;4440930;32;20116;-81
2022/04/26 10:28:55;;;;;;;8.07;3.58;;;;;;;21.82;39.22;97941.31;4455192;32;20128;-81
2022/04/26 10:31:42;;;;;;;7.72;3.47;;;;;;;22.16;37.53;97933.03;4441374;32;20149;-81
2022/04/26 10:34:18;;;;;;;8.68;3.33;;;;;;;24.15;33.03;97936.69;4455075;32;20076;-81
2022/04/26 10:36:45;;;;;;;7.55;3.40;;;;;;;23.16;36.07;97941.13;4455122;32;20097;-81
2022/04/26 10:39:12;;;;;;;7.03;3.28;;;;;;;22.95;35.30;97930.03;4454889;32;20152;-80
2022/04/26 10:41:45;;;;;;;6.60;3.17;;;;;;;22.48;37.46;97941.41;4455049;32;20164;-80
2022/04/26 10:44:24;;;;;;;6.60;3.03;;;;;;;22.08;36.89;97933.72;4455017;32;20384;-80
2022/04/26 10:46:58;;;;;;;8.52;3.75;;;;;;;22.49;37.84;97935.16;4454680;32;20129;-80
2022/04/26 10:49:40;;;;;;;7.97;3.75;;;;;;;22.14;37.04;97935.81;4454807;32;20111;-80
2022/04/26 10:52:34;;;;;;;8.40;3.75;;;;;;;22.70;38.12;97936.75;4454813;32;20573;-80
2022/04/26 10:55:03;;;;;;;6.82;3.45;;;;;;;22.37;38.71;97948.63;4454834;32;20089;-80
2022/04/26 10:57:35;;;;;;;8.98;3.75;;;;;;;22.39;37.95;97941.41;4454954;32;20132;-80
2022/04/26 11:00:07;;;;;;;8.95;3.00;;;;;;;21.79;39.43;97943.37;4454530;32;20476;-79
2022/04/26 11:02:36;;;;;;;7.32;3.70;;;;;;;21.88;39.08;97940.75;4454630;32;20101;-79
2022/04/26 11:05:08;;;;;;;8.55;3.67;;;;;;;21.95;39.01;97946.28;4456407;32;20145;-78
2022/04/26 11:07:36;;;;;;;7.20;3.37;;;;;;;21.30;41.36;97940.72;4456729;32;20418;-79
2022/04/26 11:10:04;;;;;;;8.25;3.65;;;;;;;22.32;39.04;97940.31;4456932;32;20198;-80
2022/04/26 11:12:33;;;;;;;8.35;3.70;;;;;;;21.93;40.73;97937.72;4456925;32;20465;-80
2022/04/26 11:15:12;;;;;;;6.60;3.10;;;;;;;21.79;41.05;97944.22;4456493;32;20146;-80
2022/04/26 11:17:40;;;;;;;9.05;3.70;;;;;;;22.55;38.82;97943.47;4457151;32;20100;-80
2022/04/26 11:20:14;;;;;;;9.65;3.80;;;;;;;22.51;38.83;97938.47;4457094;32;20096;-79
2022/04/26 11:22:48;;;;;;;6.50;3.47;;;;;;;22.86;37.54;97941.41;4456507;32;20148;-79
2022/04/26 11:28:10;;;;;;;8.13;3.80;;;;;;;22.45;39.78;97943.50;4456513;32;20565;-80
2022/04/26 11:30:39;;;;;;;8.07;3.42;;;;;;;23.12;37.36;97938.97;4456853;32;20153;-79
2022/04/26 11:33:09;;;;;;;10.73;4.20;;;;;;;23.49;37.05;97947.56;4456686;32;20168;-79
2022/04/26 11:35:36;;;;;;;8.13;3.58;;;;;;;21.84;38.66;97941.19;4456372;32;20103;-79
2022/04/26 11:38:08;;;;;;;7.25;3.22;;;;;;;23.33;36.71;97939.53;4456981;32;20097;-80
2022/04/26 11:40:47;;;;;;;7.53;3.35;;;;;;;23.73;37.02;97941.78;4455772;32;20169;-80
2022/04/26 11:43:16;;;;;;;7.97;3.17;;;;;;;23.24;36.89;97930.69;4456445;32;20111;-80
2022/04/26 11:45:48;;;;;;;8.95;3.80;;;;;;;24.28;34.76;97941.56;4455434;32;20123;-80
2022/04/26 11:48:24;;;;;;;6.85;3.10;;;;;;;24.35;33.01;97942.63;4456857;32;20498;-80
2022/04/26 11:50:52;;;;;;;7.10;3.40;;;;;;;24.83;33.72;97935.97;4456473;32;20081;-80
2022/04/26 11:53:21;;;;;;;9.95;3.60;;;;;;;24.59;33.42;97939.31;4456664;32;20103;-79
2022/04/26 11:55:56;;;;;;;7.47;3.20;;;;;;;24.87;33.01;97947.03;4455822;32;20138;-80
2022/04/26 11:58:23;;;;;;;7.35;3.53;;;;;;;24.74;32.28;97937.72;4456932;32;20128;-79
2022/04/26 12:01:15;;;;;;;6.80;3.55;;;;;;;24.94;32.19;97942.78;4456699;32;20089;-79
2022/04/26 12:03:54;;;;;;;7.80;3.47;;;;;;;25.06;32.30;97938.91;4456349;32;20081;-79
2022/04/26 12:06:28;;;;;;;8.55;3.95;;;;;;;25.23;33.83;97934.50;4455475;32;20081;-80
2022/04/26 12:08:57;;;;;;;7.40;3.58;;;;;;;25.27;32.30;97946.41;4455512;32;20097;-80
2022/04/26 12:11:29;;;;;;;6.80;3.40;;;;;;;24.51;33.69;97926.91;4456103;32;20405;-79
2022/04/26 12:14:13;;;;;;;6.45;3.10;;;;;;;24.65;34.19;97930.75;4456749;32;20081;-80
2022/04/26 12:16:48;;;;;;;7.15;3.22;;;;;;;24.78;32.61;97925.06;4454950;32;20615;-80
2022/04/26 12:19:16;;;;;;;7.65;3.10;;;;;;;25.20;32.04;97930.38;4456441;32;20141;-80
2022/04/26 12:21:56;;;;;;;6.12;2.85;;;;;;;24.51;32.76;97924.25;4455387;32;20097;-80
2022/04/26 12:24:29;;;;;;;7.30;3.42;;;;;;;23.47;35.22;97917.94;4456168;32;20462;-79
2022/04/26 12:27:16;;;;;;;7.93;3.80;;;;;;;24.75;34.26;97922.72;4456320;32;20072;-79
2022/04/26 12:29:46;;;;;;;7.10;3.15;;;;;;;25.02;32.80;97917.28;4455289;32;20105;-80
2022/04/26 12:32:18;;;;;;;8.40;3.72;;;;;;;24.75;32.99;97912.19;4455884;32;20113;-79
2022/04/26 12:34:54;;;;;;;7.05;3.70;;;;;;;24.82;32.72;97905.28;4456318;32;20409;-79
2022/04/26 12:37:29;;;;;;;6.68;3.03;;;;;;;24.34;34.99;97904.03;4456469;32;20419;-79
2022/04/26 12:40:09;;;;;;;8.52;3.33;;;;;;;25.07;32.81;97899.13;4442403;32;20225;-80
2022/04/26 12:42:38;;;;;;;9.52;3.20;;;;;;;24.89;32.59;97895.75;4442525;32;20161;-79
2022/04/26 12:45:13;;;;;;;7.25;3.50;;;;;;;24.66;33.58;97886.72;4455848;32;20449;-80
2022/04/26 12:50:29;;;;;;;6.78;3.08;;;;;;;25.19;31.79;97890.91;4444449;32;20114;-79
2022/04/26 12:53:01;;;;;;;7.22;3.28;;;;;;;24.73;33.57;97883.31;4442419;32;20160;-79
2022/04/26 12:55:33;;;;;;;7.50;3.15;;;;;;;26.42;30.00;97884.72;4442250;32;20565;-79
2022/04/26 12:58:06;;;;;;;6.37;3.22;;;;;;;26.00;30.91;97877.81;4456425;32;20100;-79
2022/04/26 13:00:36;;;;;;;5.97;2.95;;;;;;;25.30;31.11;97882.69;4455959;32;20161;-80
2022/04/26 13:03:05;;;;;;;6.93;3.17;;;;;;;25.71;30.79;97888.88;4456266;32;20153;-79
2022/04/26 13:05:40;;;;;;;7.45;3.37;;;;;;;25.56;30.60;97890.50;4456210;32;20512;-81
2022/04/26 13:08:08;;;;;;;7.20;3.10;;;;;;;25.27;31.72;97880.38;4455908;32;20093;-80
2022/04/26 13:10:35;;;;;;;5.87;2.90;;;;;;;24.68;32.84;97885.62;4455931;32;20465;-81
2022/04/26 13:13:02;;;;;;;8.10;3.60;;;;;;;24.57;33.45;97875.34;4455731;32;20111;-81
2022/04/26 13:15:29;;;;;;;8.88;3.12;;;;;;;24.74;33.07;97866.50;4455950;32;20101;-81
2022/04/26 13:17:57;;;;;;;7.82;3.28;;;;;;;25.16;31.64;97875.41;4456220;32;20730;-81
2022/04/26 13:20:24;;;;;;;7.72;3.42;;;;;;;25.28;31.37;97860.91;4455861;32;20100;-80
2022/04/26 13:22:51;;;;;;;7.12;3.05;;;;;;;25.18;32.29;97868.97;4455997;32;20422;-81
2022/04/26 13:25:18;;;;;;;7.00;3.08;;;;;;;25.92;29.97;97860.13;4455861;32;20593;-81
2022/04/26 13:27:47;;;;;;;13.23;3.40;;;;;;;25.91;30.75;97855.84;4440451;32;20194;-80
2022/04/26 13:30:15;;;;;;;6.05;2.92;;;;;;;24.64;33.57;97855.25;4455902;32;20132;-79
2022/04/26 13:32:43;;;;;;;6.00;2.75;;;;;;;24.36;33.82;97856.44;4455549;32;20168;-81
2022/04/26 13:35:10;;;;;;;5.93;2.70;;;;;;;23.39;36.66;97854.66;4455437;32;20169;-80
2022/04/26 13:37:38;;;;;;;6.28;2.62;;;;;;;24.25;35.98;97852.25;4456009;32;20116;-79
2022/04/26 13:40:07;;;;;;;5.70;2.60;;;;;;;25.14;32.53;97859.72;4455859;32;20112;-79
2022/04/26 13:42:35;;;;;;;6.28;3.10;;;;;;;25.37;33.29;97858.13;4454701;32;20089;-79
2022/04/26 13:45:03;;;;;;;6.20;2.80;;;;;;;25.73;34.12;97854.34;4455659;32;20183;-81
2022/04/26 13:47:30;;;;;;;6.72;2.75;;;;;;;24.66;33.74;97857.72;4455815;32;20143;-81
2022/04/26 13:49:57;;;;;;;6.18;2.92;;;;;;;25.03;34.66;97854.75;4455446;32;20446;-80
2022/04/26 13:52:24;;;;;;;5.32;2.72;;;;;;;25.68;34.57;97852.19;4441850;32;20509;-79
2022/04/26 13:54:51;;;;;;;6.47;3.08;;;;;;;26.75;31.73;97851.03;4441756;32;20103;-79
2022/04/26 13:57:18;;;;;;;5.62;2.75;;;;;;;26.50;32.24;97845.00;4455438;32;20104;-79
2022/04/26 13:59:46;;;;;;;4.50;2.70;;;;;;;25.93;31.78;97845.91;4441508;32;20287;-81
2022/04/26 14:02:13;;;;;;;6.80;2.95;;;;;;;26.43;31.17;97844.84;4455244;32;20119;-80
2022/04/26 14:04:40;;;;;;;6.95;3.37;;;;;;;26.06;31.12;97844.59;4455492;32;20146;-80
2022/04/26 14:07:07;;;;;;;7.40;3.20;;;;;;;25.98;32.52;97842.78;4441678;32;20103;-79
2022/04/26 14:09:34;;;;;;;6.78;3.35;;;;;;;26.25;31.08;97837.09;4441227;32;20116;-80
2022/04/26 14:12:03;;;;;;;7.40;2.83;;;;;;;25.41;32.72;97839.28;4455525;32;20158;-79
2022/04/26 14:23:06;;;;;;;7.87;3.50;;;;;;;21.96;40.50;97824.47;4406818;32;20128;-78
2022/04/26 14:25:33;;;;;;;6.68;3.08;;;;;;;22.34;41.83;97831.47;4435949;32;20504;-79
2022/04/26 14:28:00;;;;;;;7.20;3.85;;;;;;;20.93;44.71;97829.47;4455306;32;20152;-79
2022/04/26 14:30:27;;;;;;;6.90;3.25;;;;;;;21.41;41.05;97820.84;4454726;32;20084;-79
2022/04/26 14:33:07;;;;;;;9.60;3.37;;;;;;;20.93;42.57;97818.97;4455307;32;20115;-79
2022/04/26 14:35:34;;;;;;;6.60;3.10;;;;;;;22.27;39.56;97819.03;4455114;32;20093;-79
2022/04/26 14:38:02;;;;;;;7.68;3.33;;;;;;;22.81;39.79;97823.47;4454889;32;20137;-79
2022/04/26 14:40:29;;;;;;;7.12;3.40;;;;;;;23.12;39.71;97820.53;4443196;32;20609;-81
2022/04/26 14:43:02;;;;;;;6.20;3.00;;;;;;;23.39;37.30;97817.81;4457305;32;20105;-79
2022/04/26 14:45:32;;;;;;;6.85;3.12;;;;;;;21.82;42.22;97817.06;4456762;32;20077;-79
2022/04/26 14:48:00;;;;;;;6.62;3.22;;;;;;;22.46;39.93;97816.34;4457138;32;20131;-80
2022/04/26 14:50:30;;;;;;;8.27;3.40;;;;;;;23.44;37.34;97812.94;4456926;32;20089;-80
2022/04/26 14:52:57;;;;;;;7.28;3.40;;;;;;;23.02;38.45;97816.16;4456752;32;20101;-80
2022/04/26 14:55:24;;;;;;;7.12;3.20;;;;;;;22.14;39.71;97809.69;4456927;32;20089;-80
2022/04/26 14:57:50;;;;;;;7.75;3.50;;;;;;;23.82;36.08;97816.19;4457193;32;20683;-79
2022/04/26 15:00:18;;;;;;;6.07;2.85;;;;;;;23.14;37.04;97808.03;4456899;32;20190;-79
2022/04/26 15:02:44;;;;;;;6.25;3.00;;;;;;;24.45;34.57;97816.75;4457014;32;20138;-79
2022/04/26 15:05:13;;;;;;;5.65;2.85;;;;;;;23.46;36.79;97807.50;4442675;32;20127;-79
2022/04/26 15:10:27;;;;;;;7.03;3.17;;;;;;;23.16;38.72;97806.91;4445243;32;20647;-79
2022/04/26 15:18:25;;;;;;;8.35;3.35;;;;;;;23.03;40.09;97799.41;4457039;32;20174;-80
2022/04/26 15:20:52;;;;;;;6.45;2.80;;;;;;;22.58;38.06;97796.75;4456596;32;20123;-80
2022/04/26 15:23:20;;;;;;;5.90;2.70;;;;;;;22.29;39.53;97806.56;4456848;32;20141;-80
2022/04/26 15:25:52;;;;;;;5.28;2.30;;;;;;;22.03;39.41;97807.19;4442793;32;20179;-80
2022/04/26 15:28:20;;;;;;;11.20;3.30;;;;;;;22.55;37.29;97794.44;4456678;32;20137;-79
2022/04/26 15:30:48;;;;;;;6.82;3.10;;;;;;;22.10;39.20;97795.16;4456664;32;20093;-80
2022/04/26 15:33:19;;;;;;;7.50;2.62;;;;;;;21.35;42.50;97798.59;4456446;32;20247;-81
2022/04/26 15:35:47;;;;;;;5.37;2.42;;;;;;;20.90;42.57;97800.91;4442807;32;20094;-80
2022/04/26 15:38:14;;;;;;;6.53;2.90;;;;;;;21.57;42.17;97785.16;4456935;32;20123;-80
2022/04/26 15:40:42;;;;;;;6.47;2.90;;;;;;;21.35;41.56;97791.53;4456419;32;20153;-79
2022/04/26 15:43:10;;;;;;;8.00;3.25;;;;;;;21.17;43.17;97787.12;4456764;32;20133;-80
2022/04/26 15:45:37;;;;;;;6.87;3.33;;;;;;;21.09;42.44;97803.53;4442682;32;20148;-79
2022/04/26 15:48:05;;;;;;;6.37;2.80;;;;;;;20.20;43.18;97794.72;4456495;32;20140;-79
2022/04/26 15:50:32;;;;;;;6.22;2.47;;;;;;;20.94;42.18;97800.47;4455736;32;20503;-80
2022/04/26 15:52:59;;;;;;;7.95;3.40;;;;;;;21.06;42.98;97794.16;4456745;32;20148;-80
2022/04/26 15:55:33;;;;;;;7.28;3.30;;;;;;;21.37;41.86;97791.41;4456334;32;20097;-80